createdAt,value
2023-01-25T00:02:20.131Z,89.03
2023-01-25T00:04:47.719Z,87.93
2023-01-25T00:07:15.249Z,89.62
2023-01-25T00:09:42.979Z,89.01
2023-01-25T00:12:11.884Z,89.13
2023-01-25T00:14:39.611Z,87.54
2023-01-25T00:17:07.288Z,87.31
2023-01-25T00:19:34.980Z,85.83
2023-01-25T00:22:03.748Z,87.75
2023-01-25T00:24:31.246Z,87.86
2023-01-25T00:26:58.760Z,89.10
2023-01-25T00:29:27.704Z,87.82
2023-01-25T00:32:00.304Z,87.32
2023-01-25T00:34:46.746Z,87.54
2023-01-25T00:37:20.438Z,88.03
2023-01-25T00:39:48.035Z,87.29
2023-01-25T00:42:17.207Z,87.01
2023-01-25T00:44:46.513Z,87.51
2023-01-25T00:47:14.343Z,87.68
2023-01-25T00:49:43.367Z,88.46
2023-01-25T00:52:11.137Z,87.46
2023-01-25T00:54:38.651Z,87.73
2023-01-25T00:57:07.064Z,86.34
2023-01-25T00:59:34.583Z,85.30
2023-01-25T01:02:04.041Z,87.70
2023-01-25T01:04:31.860Z,88.26
2023-01-25T01:06:59.661Z,88.07
2023-01-25T01:09:27.459Z,88.11
2023-01-25T01:11:55.156Z,88.63
2023-01-25T01:14:23.869Z,87.51
2023-01-25T01:16:51.406Z,88.67
2023-01-25T01:19:20.473Z,88.84
2023-01-25T01:21:48.069Z,88.57
2023-01-25T01:24:15.840Z,89.43
2023-01-25T01:26:43.354Z,89.17
2023-01-25T01:29:10.887Z,90.24
2023-01-25T01:31:38.492Z,89.27
2023-01-25T01:34:06.045Z,90.84
2023-01-25T01:36:35.029Z,90.53
2023-01-25T01:39:02.815Z,89.67
2023-01-25T01:41:30.322Z,90.48
2023-01-25T01:43:57.823Z,90.31
2023-01-25T01:46:29.771Z,89.04
2023-01-25T01:48:59.961Z,88.45
2023-01-25T01:51:40.665Z,87.65
2023-01-25T01:54:11.478Z,88.43
2023-01-25T01:56:41.713Z,90.54
2023-01-25T01:59:10.555Z,90.03
2023-01-25T02:01:38.135Z,90.40
2023-01-25T02:04:07.177Z,89.69
2023-01-25T02:06:41.556Z,87.09
2023-01-25T02:09:09.052Z,89.20
2023-01-25T02:11:36.946Z,90.76
2023-01-25T02:14:05.061Z,91.29
2023-01-25T02:16:32.572Z,90.33
2023-01-25T02:19:02.155Z,90.14
2023-01-25T02:21:34.974Z,88.12
2023-01-25T02:24:07.649Z,89.56
2023-01-25T02:26:36.536Z,88.77
2023-01-25T02:29:05.986Z,89.44
2023-01-25T02:31:33.799Z,90.04
2023-01-25T02:34:01.587Z,89.71
2023-01-25T02:36:31.073Z,91.16
2023-01-25T02:39:01.230Z,89.68
2023-01-25T02:41:33.266Z,89.13
2023-01-25T02:44:04.181Z,90.35
2023-01-25T02:46:33.695Z,88.86
2023-01-25T02:49:02.158Z,86.51
2023-01-25T02:51:31.452Z,90.25
2023-01-25T02:53:59.433Z,88.62
2023-01-25T02:56:27.017Z,89.83
2023-01-25T02:58:54.554Z,89.03
2023-01-25T03:01:23.427Z,89.65
2023-01-25T03:03:50.975Z,90.12
2023-01-25T03:06:18.478Z,91.73
2023-01-25T03:08:45.996Z,92.19
2023-01-25T03:11:13.468Z,91.04
2023-01-25T03:13:40.950Z,90.93
2023-01-25T03:16:10.698Z,91.05
2023-01-25T03:18:40.140Z,92.00
2023-01-25T03:21:09.533Z,89.82
2023-01-25T03:23:37.619Z,87.83
2023-01-25T03:26:06.757Z,89.86
2023-01-25T03:28:34.242Z,88.79
2023-01-25T03:31:01.916Z,88.98
2023-01-25T03:33:29.467Z,88.35
2023-01-25T03:35:58.728Z,89.05
2023-01-25T03:38:26.919Z,90.25
2023-01-25T03:40:54.445Z,88.18
2023-01-25T03:43:22.345Z,86.74
2023-01-25T03:45:53.088Z,86.86
2023-01-25T03:48:20.990Z,87.21
2023-01-25T03:50:52.017Z,86.28
2023-01-25T03:53:27.539Z,86.28
2023-01-25T03:55:56.072Z,86.09
2023-01-25T03:58:23.721Z,85.90
2023-01-25T04:00:51.327Z,85.23
2023-01-25T04:03:19.893Z,83.91
2023-01-25T04:05:47.847Z,86.68
2023-01-25T04:08:15.455Z,85.19
2023-01-25T04:10:44.286Z,84.53
2023-01-25T04:13:11.748Z,86.23
2023-01-25T04:15:39.249Z,87.17
2023-01-25T04:18:06.795Z,85.95
2023-01-25T04:20:34.318Z,89.47
2023-01-25T04:23:01.812Z,89.47
2023-01-25T04:25:29.332Z,87.13
2023-01-25T04:27:58.230Z,86.69
2023-01-25T04:30:25.865Z,87.47
2023-01-25T04:32:53.717Z,90.66
2023-01-25T04:35:21.643Z,88.27
2023-01-25T04:37:54.511Z,86.89
2023-01-25T04:40:22.056Z,86.40
2023-01-25T04:42:49.558Z,86.10
2023-01-25T04:45:18.496Z,87.43
2023-01-25T04:47:45.965Z,86.09
2023-01-25T04:50:13.435Z,85.33
2023-01-25T04:52:40.907Z,86.33
2023-01-25T04:55:09.237Z,85.78
2023-01-25T04:57:36.887Z,87.06
2023-01-25T05:00:04.935Z,88.14
2023-01-25T05:02:33.893Z,86.80
2023-01-25T05:05:01.555Z,86.88
2023-01-25T05:07:29.028Z,85.17
2023-01-25T05:09:56.485Z,84.75
2023-01-25T05:12:24.035Z,85.86
2023-01-25T05:14:51.512Z,85.47
2023-01-25T05:17:19.018Z,84.43
2023-01-25T05:19:47.886Z,84.42
2023-01-25T05:22:15.990Z,85.10
2023-01-25T05:24:45.051Z,85.88
2023-01-25T05:27:13.180Z,86.66
2023-01-25T05:29:42.039Z,85.64
2023-01-25T05:32:11.111Z,86.46
2023-01-25T05:34:38.845Z,86.62
2023-01-25T05:37:09.754Z,86.40
2023-01-25T05:39:37.459Z,85.96
2023-01-25T05:42:05.273Z,86.87
2023-01-25T05:44:32.774Z,86.05
2023-01-25T05:47:00.250Z,85.18
2023-01-25T05:49:27.754Z,84.32
2023-01-25T05:51:55.222Z,85.34
2023-01-25T05:54:23.993Z,86.46
2023-01-25T05:56:51.478Z,85.78
2023-01-25T05:59:19.194Z,87.96
2023-01-25T06:01:46.892Z,86.88
2023-01-25T06:04:15.570Z,89.03
2023-01-25T06:06:43.369Z,91.31
2023-01-25T06:09:11.693Z,91.11
2023-01-25T06:11:40.817Z,91.33
2023-01-25T06:14:08.283Z,88.70
2023-01-25T06:16:35.739Z,89.72
2023-01-25T06:19:03.220Z,89.86
2023-01-25T06:21:30.703Z,90.13
2023-01-25T06:23:58.203Z,91.63
2023-01-25T06:26:25.695Z,92.90
2023-01-25T06:28:54.487Z,92.21
2023-01-25T06:31:22.139Z,89.43
2023-01-25T06:33:50.662Z,92.03
2023-01-25T06:36:20.203Z,89.89
2023-01-25T06:38:49.596Z,89.42
2023-01-25T06:41:17.085Z,90.00
2023-01-25T06:43:44.575Z,87.26
2023-01-25T06:46:13.580Z,87.98
2023-01-25T06:48:42.776Z,90.74
2023-01-25T06:51:11.803Z,91.60
2023-01-25T06:53:40.640Z,89.70
2023-01-25T06:56:11.738Z,90.52
2023-01-25T06:58:39.826Z,91.62
2023-01-25T07:01:10.065Z,91.58
2023-01-25T07:03:38.894Z,91.20
2023-01-25T07:06:08.814Z,89.64
2023-01-25T07:08:36.953Z,87.61
2023-01-25T07:11:06.375Z,88.19
2023-01-25T07:13:35.054Z,88.98
2023-01-25T07:16:04.517Z,87.24
2023-01-25T07:18:32.503Z,89.54
2023-01-25T07:21:05.661Z,90.13
2023-01-25T07:23:34.480Z,89.23
2023-01-25T07:26:02.642Z,86.84
2023-01-25T07:28:30.211Z,85.24
2023-01-25T07:30:57.953Z,86.44
2023-01-25T07:33:25.451Z,85.65
2023-01-25T07:35:52.922Z,86.92
2023-01-25T07:38:21.700Z,87.09
2023-01-25T07:40:52.684Z,89.16
2023-01-25T07:43:20.435Z,91.70
2023-01-25T07:45:49.555Z,91.57
2023-01-25T07:48:17.655Z,91.89
2023-01-25T07:50:49.464Z,90.92
2023-01-25T07:53:17.165Z,90.75
2023-01-25T07:55:45.953Z,88.13
2023-01-25T07:58:13.453Z,87.34
2023-01-25T08:00:41.309Z,87.71
2023-01-25T08:03:10.105Z,90.63
2023-01-25T08:05:39.438Z,89.15
2023-01-25T08:08:07.581Z,88.51
2023-01-25T08:10:35.129Z,88.10
2023-01-25T08:13:03.913Z,89.08
2023-01-25T08:15:31.434Z,89.88
2023-01-25T08:18:00.368Z,89.70
2023-01-25T08:20:27.921Z,89.54
2023-01-25T08:22:55.511Z,87.69
2023-01-25T08:25:23.187Z,87.95
2023-01-25T08:27:52.088Z,86.80
2023-01-25T08:30:21.201Z,85.78
2023-01-25T08:32:48.662Z,85.28
2023-01-25T08:35:16.338Z,86.04
2023-01-25T08:37:43.963Z,85.00
2023-01-25T08:40:13.825Z,85.06
2023-01-25T08:42:43.070Z,84.24
2023-01-25T08:45:11.551Z,84.66
2023-01-25T08:47:40.491Z,85.29
2023-01-25T08:50:09.378Z,84.92
2023-01-25T08:52:37.055Z,85.16
2023-01-25T08:55:05.214Z,86.50
2023-01-25T08:57:32.675Z,85.57
2023-01-25T09:00:00.146Z,85.05
2023-01-25T09:02:27.613Z,84.92
2023-01-25T09:04:56.427Z,84.02
2023-01-25T09:07:23.913Z,83.93
2023-01-25T09:09:51.448Z,84.77
2023-01-25T09:12:18.989Z,83.33
2023-01-25T09:14:46.473Z,88.52
2023-01-25T09:17:13.923Z,90.37
2023-01-25T09:19:42.444Z,88.41
2023-01-25T09:22:11.219Z,86.76
2023-01-25T09:24:38.720Z,91.18
2023-01-25T09:27:06.247Z,90.67
2023-01-25T09:29:33.774Z,89.47
2023-01-25T09:32:01.314Z,87.98
2023-01-25T09:34:28.866Z,87.70
2023-01-25T09:36:56.317Z,86.82
2023-01-25T09:39:25.554Z,87.52
2023-01-25T09:42:14.641Z,88.29
2023-01-25T09:44:54.111Z,88.21
2023-01-25T09:47:27.006Z,86.69
2023-01-25T09:50:19.125Z,86.34
2023-01-25T09:53:06.273Z,85.99
2023-01-25T09:55:35.328Z,85.12
2023-01-25T09:58:04.094Z,87.83
2023-01-25T10:00:33.840Z,88.41
2023-01-25T10:03:04.732Z,88.67
2023-01-25T10:05:34.113Z,87.99
2023-01-25T10:08:05.131Z,88.84
2023-01-25T10:10:37.401Z,90.99
2023-01-25T10:13:05.065Z,88.57
2023-01-25T10:15:36.922Z,88.56
2023-01-25T10:18:09.509Z,87.13
2023-01-25T10:20:40.469Z,87.61
2023-01-25T10:23:37.788Z,86.23
2023-01-25T10:26:09.347Z,87.21
2023-01-25T10:28:42.500Z,86.77
2023-01-25T10:31:18.277Z,85.57
2023-01-25T10:33:47.336Z,85.87
2023-01-25T10:36:16.887Z,85.55
2023-01-25T10:38:46.136Z,84.72
2023-01-25T10:41:19.040Z,84.86
2023-01-25T10:44:09.219Z,86.09
2023-01-25T10:46:37.172Z,84.95
2023-01-25T10:49:19.152Z,84.97
2023-01-25T10:51:46.627Z,84.61
2023-01-25T10:54:16.431Z,85.30
2023-01-25T10:56:46.005Z,84.70
2023-01-25T10:59:19.187Z,84.23
2023-01-25T11:01:46.787Z,84.83
2023-01-25T11:04:32.810Z,84.46
2023-01-25T11:07:02.515Z,84.59
2023-01-25T11:09:38.806Z,84.57
2023-01-25T11:12:18.905Z,84.28
2023-01-25T11:14:49.720Z,84.09
2023-01-25T11:17:26.741Z,83.62
2023-01-25T11:20:17.148Z,84.05
2023-01-25T11:22:52.662Z,82.45
2023-01-25T11:25:26.782Z,87.12
2023-01-25T11:28:11.425Z,89.99
2023-01-25T11:30:39.220Z,86.96
2023-01-25T11:33:11.603Z,86.03
2023-01-25T11:35:44.695Z,82.70
2023-01-25T11:38:13.043Z,84.03
2023-01-25T11:40:44.217Z,84.15
2023-01-25T11:43:22.216Z,82.50
2023-01-25T11:46:08.670Z,84.63
2023-01-25T11:49:02.742Z,82.70
2023-01-25T11:51:33.492Z,84.46
2023-01-25T11:54:23.505Z,84.75
2023-01-25T11:56:56.602Z,85.22
2023-01-25T11:59:28.069Z,85.32
2023-01-25T12:02:08.521Z,82.12
2023-01-25T12:04:47.182Z,84.71
2023-01-25T12:07:20.527Z,83.00
2023-01-25T12:10:04.122Z,83.54
2023-01-25T12:12:41.843Z,85.20
2023-01-25T12:15:26.979Z,84.62
2023-01-25T12:18:06.659Z,84.82
2023-01-25T12:20:43.157Z,83.86
2023-01-25T12:23:28.389Z,84.32
2023-01-25T12:26:16.685Z,85.79
2023-01-25T12:28:48.059Z,83.12
2023-01-25T12:31:20.571Z,89.25
2023-01-25T12:33:50.228Z,90.50
2023-01-25T12:36:21.264Z,88.69
2023-01-25T12:38:52.143Z,87.83
2023-01-25T12:41:27.743Z,86.45
2023-01-25T12:43:57.377Z,89.88
2023-01-25T12:46:29.895Z,90.87
2023-01-25T12:49:01.343Z,89.95
2023-01-25T12:51:34.928Z,87.71
2023-01-25T12:54:04.035Z,88.39
2023-01-25T12:56:40.690Z,85.50
2023-01-25T12:59:15.573Z,87.81
2023-01-25T13:01:47.918Z,89.98
2023-01-25T13:04:46.095Z,87.49
2023-01-25T13:07:17.481Z,86.21
2023-01-25T13:09:51.158Z,86.34
2023-01-25T13:12:18.875Z,86.57
2023-01-25T13:14:46.564Z,85.54
2023-01-25T13:17:24.585Z,84.86
2023-01-25T13:19:53.390Z,87.41
2023-01-25T13:22:58.673Z,85.13
2023-01-25T13:25:27.397Z,85.06
2023-01-25T13:28:39.353Z,86.06
2023-01-25T13:31:06.952Z,84.92
2023-01-25T13:33:36.912Z,86.22
2023-01-25T13:36:41.104Z,87.52
2023-01-25T13:39:42.311Z,87.15
2023-01-25T13:42:20.773Z,86.90
2023-01-25T13:44:51.639Z,85.71
2023-01-25T13:47:21.572Z,84.29
2023-01-25T13:49:55.020Z,82.94
2023-01-25T13:52:24.632Z,86.39
2023-01-25T13:54:55.973Z,87.13
2023-01-25T13:57:25.052Z,86.17
2023-01-25T14:00:10.898Z,83.57
2023-01-25T14:02:39.765Z,86.02
2023-01-25T14:05:18.972Z,89.57
2023-01-25T14:07:47.508Z,87.49
2023-01-25T14:10:17.414Z,87.25
2023-01-25T14:12:45.339Z,84.96
2023-01-25T14:15:21.726Z,85.54
2023-01-25T14:18:11.017Z,87.74
2023-01-25T14:20:40.086Z,89.73
2023-01-25T14:23:21.456Z,89.11
2023-01-25T14:25:49.015Z,87.16
2023-01-25T14:28:16.715Z,85.88
2023-01-25T14:30:44.505Z,85.20
2023-01-25T14:33:19.989Z,84.29
2023-01-25T14:35:55.488Z,83.24
2023-01-25T14:38:30.672Z,83.93
2023-01-25T14:41:02.231Z,83.32
2023-01-25T14:43:30.832Z,87.42
2023-01-25T14:45:58.541Z,87.51
2023-01-25T14:48:40.803Z,86.02
2023-01-25T14:51:16.933Z,84.12
2023-01-25T14:53:47.610Z,84.16
2023-01-25T14:56:32.532Z,88.79
2023-01-25T14:59:00.429Z,86.48
2023-01-25T15:01:33.563Z,84.70
2023-01-25T15:04:01.340Z,89.08
2023-01-25T15:06:30.366Z,88.19
2023-01-25T15:08:58.145Z,89.10
2023-01-25T15:11:38.839Z,91.23
2023-01-25T15:14:17.820Z,89.24
2023-01-25T15:16:45.563Z,90.20
2023-01-25T15:19:28.338Z,89.36
2023-01-25T15:21:58.537Z,88.15
2023-01-25T15:24:26.684Z,91.01
2023-01-25T15:26:55.874Z,90.58
2023-01-25T15:29:27.004Z,90.69
2023-01-25T15:31:56.163Z,89.92
2023-01-25T15:34:26.201Z,90.98
2023-01-25T15:36:53.888Z,87.35
2023-01-25T15:39:23.264Z,86.75
2023-01-25T15:41:50.765Z,89.30
2023-01-25T15:44:20.139Z,91.20
2023-01-25T15:46:50.638Z,88.70
2023-01-25T15:49:20.041Z,88.70
2023-01-25T15:51:48.685Z,88.19
2023-01-25T15:54:16.353Z,88.66
2023-01-25T15:56:46.826Z,89.23
2023-01-25T15:59:16.839Z,88.92
2023-01-25T16:01:44.755Z,88.92
2023-01-25T16:04:13.840Z,88.45
2023-01-25T16:06:43.918Z,90.15
2023-01-25T16:09:15.581Z,90.43
2023-01-25T16:11:44.651Z,90.16
2023-01-25T16:14:12.679Z,92.27
2023-01-25T16:16:43.556Z,90.75
2023-01-25T16:19:14.127Z,88.14
2023-01-25T16:21:42.133Z,86.62
2023-01-25T16:24:10.232Z,86.80
2023-01-25T16:26:39.562Z,86.24
2023-01-25T16:29:09.167Z,85.96
2023-01-25T16:31:36.729Z,86.76
2023-01-25T16:34:04.575Z,87.08
2023-01-25T16:36:34.052Z,85.37
2023-01-25T16:39:10.003Z,86.29
2023-01-25T16:41:38.032Z,84.74
2023-01-25T16:44:05.785Z,84.95
2023-01-25T16:46:34.924Z,84.06
2023-01-25T16:49:04.961Z,86.08
2023-01-25T16:51:33.432Z,85.92
2023-01-25T16:54:00.927Z,85.70
2023-01-25T16:56:30.382Z,85.16
2023-01-25T16:59:02.109Z,85.09
2023-01-25T17:01:29.729Z,86.20
2023-01-25T17:03:59.000Z,86.15
2023-01-25T17:06:28.054Z,86.24
2023-01-25T17:09:00.314Z,87.92
2023-01-25T17:11:28.329Z,84.79
2023-01-25T17:13:57.863Z,85.12
2023-01-25T17:16:26.913Z,86.16
2023-01-25T17:18:55.284Z,84.70
2023-01-25T17:21:24.573Z,84.35
2023-01-25T17:23:52.935Z,87.84
2023-01-25T17:26:21.682Z,87.75
2023-01-25T17:28:49.821Z,86.31
2023-01-25T17:31:19.448Z,85.17
2023-01-25T17:33:47.361Z,84.99
2023-01-25T17:36:15.338Z,86.46
2023-01-25T17:38:44.614Z,86.94
2023-01-25T17:41:14.167Z,88.55
2023-01-25T17:43:41.977Z,87.55
2023-01-25T17:46:13.488Z,87.90
2023-01-25T17:48:41.238Z,89.75
2023-01-25T17:51:08.773Z,89.92
2023-01-25T17:53:36.269Z,91.20
2023-01-25T17:56:06.462Z,89.11
2023-01-25T17:58:36.662Z,90.48
2023-01-25T18:01:13.778Z,90.03
2023-01-25T18:03:42.028Z,91.73
2023-01-25T18:06:09.902Z,91.44
2023-01-25T18:08:40.155Z,92.41
2023-01-25T18:11:10.232Z,92.58
2023-01-25T18:13:40.213Z,91.26
2023-01-25T18:16:09.538Z,89.23
2023-01-25T18:18:37.644Z,88.91
2023-01-25T18:21:07.732Z,91.63
2023-01-25T18:23:35.506Z,89.66
2023-01-25T18:26:05.277Z,87.73
2023-01-25T18:28:34.466Z,88.75
2023-01-25T18:31:06.057Z,87.92
2023-01-25T18:33:34.225Z,89.99
2023-01-25T18:36:03.857Z,90.19
2023-01-25T18:38:32.772Z,89.02
2023-01-25T18:41:00.823Z,87.14
2023-01-25T18:43:28.829Z,87.31
2023-01-25T18:45:59.542Z,89.12
2023-01-25T18:48:31.102Z,87.60
2023-01-25T18:50:59.531Z,90.44
2023-01-25T18:53:27.656Z,89.53
2023-01-25T18:55:59.748Z,88.13
2023-01-25T18:58:27.576Z,86.61
2023-01-25T19:01:03.826Z,86.49
2023-01-25T19:03:31.554Z,89.46
2023-01-25T19:05:59.278Z,91.02
2023-01-25T19:08:27.721Z,93.11
2023-01-25T19:11:06.427Z,91.47
2023-01-25T19:13:35.292Z,90.45
2023-01-25T19:16:06.347Z,91.28
2023-01-25T19:18:35.590Z,89.84
2023-01-25T19:21:03.690Z,89.87
2023-01-25T19:23:34.230Z,87.35
2023-01-25T19:26:01.906Z,87.73
2023-01-25T19:28:29.803Z,86.77
2023-01-25T19:30:57.794Z,87.41
2023-01-25T19:33:26.842Z,87.26
2023-01-25T19:36:01.296Z,86.32
2023-01-25T19:38:28.757Z,86.11
2023-01-25T19:40:56.269Z,86.60
2023-01-25T19:43:24.041Z,85.11
2023-01-25T19:45:51.632Z,86.14
2023-01-25T19:48:19.090Z,85.52
2023-01-25T19:50:48.466Z,85.55
2023-01-25T19:53:15.984Z,85.17
2023-01-25T19:55:43.640Z,85.48
2023-01-25T19:58:12.053Z,85.85
2023-01-25T20:00:39.789Z,85.82
2023-01-25T20:03:15.912Z,84.51
2023-01-25T20:05:44.337Z,85.05
2023-01-25T20:08:13.111Z,89.52
2023-01-25T20:10:40.877Z,88.24
2023-01-25T20:13:08.565Z,86.64
2023-01-25T20:15:36.190Z,85.75
2023-01-25T20:18:05.009Z,86.65
2023-01-25T20:20:32.807Z,88.10
2023-01-25T20:23:00.266Z,87.08
2023-01-25T20:25:29.071Z,86.28
2023-01-25T20:27:56.757Z,87.41
2023-01-25T20:30:24.244Z,85.06
2023-01-25T20:32:51.726Z,85.62
2023-01-25T20:35:19.208Z,89.39
2023-01-25T20:37:49.321Z,89.57
2023-01-25T20:40:17.726Z,88.53
2023-01-25T20:42:46.804Z,89.92
2023-01-25T20:45:16.953Z,91.00
2023-01-25T20:47:44.507Z,92.68
2023-01-25T20:50:12.405Z,92.19
2023-01-25T20:52:40.132Z,92.46
2023-01-25T20:55:08.518Z,90.92
2023-01-25T20:57:37.281Z,91.15
2023-01-25T21:00:09.358Z,91.84
2023-01-25T21:02:38.793Z,92.70
2023-01-25T21:05:06.814Z,93.00
2023-01-25T21:07:34.389Z,92.40
2023-01-25T21:10:01.866Z,92.68
2023-01-25T21:12:31.314Z,92.84
2023-01-25T21:14:59.058Z,92.93
2023-01-25T21:17:27.884Z,91.00
2023-01-25T21:19:57.959Z,88.02
2023-01-25T21:22:25.630Z,88.11
2023-01-25T21:24:53.129Z,90.30
2023-01-25T21:27:20.640Z,91.41
2023-01-25T21:29:48.137Z,93.29
2023-01-25T21:32:15.625Z,89.64
2023-01-25T21:34:44.699Z,88.36
2023-01-25T21:37:12.170Z,90.37
2023-01-25T21:39:40.042Z,91.67
2023-01-25T21:42:07.555Z,92.19
2023-01-25T21:44:52.985Z,90.39
2023-01-25T21:47:29.849Z,88.79
2023-01-25T21:50:17.687Z,88.40
2023-01-25T21:52:45.144Z,87.41
2023-01-25T21:55:12.638Z,89.12
2023-01-25T21:57:46.257Z,87.38
2023-01-25T22:00:15.912Z,90.50
2023-01-25T22:02:44.171Z,89.71
2023-01-25T22:05:13.223Z,90.67
2023-01-25T22:07:40.693Z,90.84
2023-01-25T22:10:09.324Z,88.96
2023-01-25T22:12:36.963Z,89.61
2023-01-25T22:15:05.242Z,89.12
2023-01-25T22:17:32.955Z,90.29
2023-01-25T22:20:00.455Z,91.96
2023-01-25T22:22:29.339Z,91.35
2023-01-25T22:24:56.954Z,90.84
2023-01-25T22:27:38.767Z,88.24
2023-01-25T22:30:07.761Z,86.13
2023-01-25T22:32:35.685Z,87.13
2023-01-25T22:35:03.253Z,87.94
2023-01-25T22:37:35.555Z,86.44
2023-01-25T22:40:03.430Z,88.70
2023-01-25T22:42:31.125Z,87.73
2023-01-25T22:44:58.824Z,87.35
2023-01-25T22:47:26.458Z,86.45
2023-01-25T22:49:54.129Z,86.32
2023-01-25T22:52:22.143Z,86.48
2023-01-25T22:54:51.814Z,85.30
2023-01-25T22:57:19.406Z,85.36
2023-01-25T22:59:46.925Z,85.45
2023-01-25T23:02:14.901Z,85.49
2023-01-25T23:04:42.528Z,85.19
2023-01-25T23:07:18.765Z,85.19
2023-01-25T23:09:48.214Z,87.56
2023-01-25T23:12:17.054Z,88.35
2023-01-25T23:14:54.090Z,86.75
2023-01-25T23:17:40.788Z,85.98
2023-01-25T23:20:11.234Z,85.58
2023-01-25T23:22:39.184Z,85.95
2023-01-25T23:25:08.418Z,85.39
2023-01-25T23:27:37.229Z,85.39
2023-01-25T23:30:07.121Z,85.02
2023-01-25T23:32:35.024Z,86.17
2023-01-25T23:35:02.508Z,87.48
2023-01-25T23:37:30.188Z,89.79
2023-01-25T23:39:57.819Z,88.15
2023-01-25T23:42:25.789Z,89.45
2023-01-25T23:44:54.604Z,89.31
2023-01-25T23:47:22.091Z,89.56
2023-01-25T23:49:49.578Z,88.48
2023-01-25T23:52:17.090Z,89.96
2023-01-25T23:54:44.791Z,89.78
2023-01-25T23:57:12.287Z,91.12
2023-01-25T23:59:39.782Z,92.37
